METAR Data
IDs: Format: Raw Decoded Include TAF

Data at: 1524 UTC 27 Nov 2021

LOWI 271450Z 09004KT 050V110 9999 -RASN SCT010 SCT020 BKN035 02/00 Q0994 RERA NOSIG